createdAt,value
2017-10-16T09:51:26.920Z,6.90
2017-10-16T09:53:54.428Z,6.90
2017-10-16T09:56:21.956Z,7.73
2017-10-16T09:58:49.476Z,8.00
2017-10-16T10:01:17.036Z,7.00
2017-10-16T10:03:44.650Z,9.33
2017-10-16T10:06:12.185Z,11.90
2017-10-16T10:08:39.742Z,9.27
2017-10-16T10:11:07.265Z,10.73
2017-10-16T10:13:34.782Z,8.20
2017-10-16T10:16:02.325Z,8.70
2017-10-16T10:18:30.022Z,10.43
2017-10-16T10:20:57.607Z,8.03
2017-10-16T10:23:25.458Z,7.13
2017-10-16T10:25:53.045Z,6.53
2017-10-16T10:28:20.575Z,12.07
2017-10-16T10:30:48.087Z,8.90
2017-10-16T10:33:16.414Z,12.07
2017-10-16T10:35:43.920Z,9.77
2017-10-16T10:38:11.744Z,9.53
2017-10-16T10:40:39.477Z,8.33
2017-10-16T10:43:07.015Z,10.93
2017-10-16T10:45:34.572Z,9.00
2017-10-16T10:48:02.131Z,8.87
2017-10-16T10:50:29.683Z,10.13
2017-10-16T10:52:57.226Z,8.13
2017-10-16T10:55:24.730Z,10.03
2017-10-16T10:57:52.297Z,8.90
2017-10-16T11:00:20.078Z,8.63
2017-10-16T11:02:47.713Z,7.50
2017-10-16T11:05:15.256Z,10.43
2017-10-16T11:07:43.602Z,6.63
2017-10-16T11:10:11.145Z,9.13
2017-10-16T11:12:39.316Z,10.20
2017-10-16T11:15:06.908Z,9.30
2017-10-16T11:17:34.430Z,8.83
2017-10-16T11:20:01.949Z,8.60
2017-10-16T11:22:29.532Z,7.53
2017-10-16T11:24:57.053Z,9.13
2017-10-16T11:27:24.616Z,10.43
2017-10-16T11:29:52.330Z,9.90
2017-10-16T11:32:19.896Z,8.47
2017-10-16T11:34:47.443Z,13.73
2017-10-16T11:37:14.988Z,6.83
2017-10-16T11:39:42.697Z,14.97
2017-10-16T11:42:10.501Z,7.03
2017-10-16T11:44:38.910Z,10.20
2017-10-16T11:47:06.508Z,7.07
2017-10-16T11:49:34.085Z,11.30
2017-10-16T11:52:01.656Z,11.43
2017-10-16T11:54:29.265Z,12.93
2017-10-16T11:56:56.812Z,10.60
2017-10-16T11:59:24.360Z,8.60
2017-10-16T12:01:51.891Z,7.63
2017-10-16T12:04:19.540Z,6.43
2017-10-16T12:06:47.117Z,9.87
2017-10-16T12:09:14.713Z,6.90
2017-10-16T12:11:42.830Z,7.47
2017-10-16T12:14:10.638Z,8.20
2017-10-16T12:16:38.229Z,7.67
2017-10-16T12:19:05.777Z,8.33
2017-10-16T12:21:33.342Z,7.67
2017-10-16T12:24:00.924Z,9.10
2017-10-16T12:26:28.493Z,11.47
2017-10-16T12:28:56.015Z,7.33
2017-10-16T12:37:59.819Z,6.10
2017-10-16T12:40:27.333Z,6.33
2017-10-16T12:42:55.001Z,6.00
2017-10-16T12:45:22.581Z,7.27
2017-10-16T12:47:50.089Z,7.00
2017-10-16T12:50:18.400Z,8.23
2017-10-16T12:52:45.997Z,5.70
2017-10-16T12:55:13.570Z,7.50
2017-10-16T12:57:41.752Z,8.23
2017-10-16T13:00:09.329Z,6.70
2017-10-16T13:02:40.282Z,8.93
2017-10-16T13:05:28.880Z,6.27
2017-10-16T13:07:56.444Z,8.17
2017-10-16T13:10:24.101Z,8.10
2017-10-16T13:12:51.620Z,15.50
2017-10-16T13:15:19.131Z,6.83
2017-10-16T13:17:46.924Z,8.20
2017-10-16T13:20:14.820Z,8.90
2017-10-16T13:22:42.409Z,6.60
2017-10-16T13:25:09.985Z,6.90
2017-10-16T13:27:38.040Z,12.87
2017-10-16T13:30:05.578Z,7.50
2017-10-16T13:32:33.097Z,7.10
2017-10-16T13:35:00.640Z,6.80
2017-10-16T13:37:28.160Z,8.33
2017-10-16T13:39:55.669Z,5.57
2017-10-16T13:42:23.245Z,7.80
2017-10-16T13:44:50.753Z,6.77
2017-10-16T13:47:18.321Z,10.80
2017-10-16T13:49:45.816Z,8.73
2017-10-16T13:52:13.355Z,6.03
2017-10-16T13:54:40.937Z,8.77
2017-10-16T13:57:08.468Z,5.33
2017-10-16T13:59:36.771Z,8.10
2017-10-16T14:02:04.329Z,5.20
2017-10-16T14:04:35.641Z,6.60
2017-10-16T14:07:03.231Z,6.03
2017-10-16T14:09:30.796Z,10.30
2017-10-16T14:12:03.550Z,6.40
2017-10-16T14:14:31.268Z,5.97
2017-10-16T14:16:58.936Z,7.60
2017-10-16T14:19:26.567Z,8.67
2017-10-16T14:21:54.128Z,9.97
2017-10-16T14:24:21.629Z,8.27
2017-10-16T14:26:49.166Z,8.67
2017-10-16T14:29:16.718Z,8.67
2017-10-16T14:31:44.251Z,6.30
2017-10-16T14:34:12.601Z,8.47
2017-10-16T14:36:40.159Z,8.43
2017-10-16T14:39:07.689Z,6.47
2017-10-16T14:41:35.492Z,15.13
2017-10-16T14:44:03.023Z,8.43
2017-10-16T14:46:30.532Z,7.83
2017-10-16T14:48:58.074Z,6.57
2017-10-16T14:51:25.605Z,7.10
2017-10-16T14:53:53.338Z,10.87
2017-10-16T14:56:20.853Z,7.20
2017-10-16T14:58:48.420Z,8.03
2017-10-16T15:01:15.970Z,8.97
2017-10-16T15:03:43.467Z,8.17
2017-10-16T15:06:11.740Z,8.90
2017-10-16T15:08:39.325Z,12.57
2017-10-16T15:11:06.845Z,9.70
2017-10-16T15:13:35.125Z,11.67
2017-10-16T15:16:02.709Z,10.20
2017-10-16T15:18:30.211Z,11.20
2017-10-16T15:20:57.728Z,7.80
2017-10-16T15:23:25.314Z,10.10
2017-10-16T15:25:52.883Z,13.27
2017-10-16T15:28:20.466Z,7.33
2017-10-16T15:30:47.967Z,6.53
2017-10-16T15:33:15.504Z,7.33
2017-10-16T15:35:44.739Z,6.60
2017-10-16T15:38:13.232Z,7.20
2017-10-16T15:40:40.793Z,9.50
2017-10-16T15:43:08.296Z,10.23
2017-10-16T15:45:35.906Z,10.10
2017-10-16T15:48:03.440Z,8.97
2017-10-16T15:50:31.281Z,12.40
2017-10-16T15:52:58.853Z,10.03
2017-10-16T15:55:27.141Z,9.37
2017-10-16T15:57:54.691Z,7.47
2017-10-16T16:00:22.186Z,6.20
2017-10-16T16:02:49.696Z,7.40
2017-10-16T16:05:18.004Z,10.73
2017-10-16T16:07:45.529Z,10.90
2017-10-16T16:10:13.079Z,12.33
2017-10-16T16:12:40.611Z,20.00
2017-10-16T16:15:08.149Z,21.33
2017-10-16T16:17:35.737Z,22.93
2017-10-16T16:20:03.256Z,19.43
2017-10-16T16:22:30.819Z,17.77
2017-10-16T16:24:58.365Z,19.00
2017-10-16T16:27:25.929Z,16.57
2017-10-16T16:29:53.444Z,33.23
2017-10-16T16:32:20.964Z,18.03
2017-10-16T16:34:48.525Z,20.80
2017-10-16T16:37:16.090Z,16.10
2017-10-16T16:39:43.845Z,19.23
2017-10-16T16:42:11.430Z,11.60
2017-10-16T16:44:38.944Z,28.77
2017-10-16T16:47:06.480Z,36.10
2017-10-16T16:49:34.024Z,32.20
2017-10-16T16:52:01.553Z,19.87
2017-10-16T16:54:29.091Z,17.67
2017-10-16T16:56:56.644Z,19.10
2017-10-16T16:59:24.197Z,16.67
2017-10-16T17:01:51.706Z,14.30
2017-10-16T17:04:19.237Z,13.67
2017-10-16T17:06:46.801Z,10.17
2017-10-16T17:09:14.307Z,8.67
2017-10-16T17:11:41.803Z,9.20
2017-10-16T17:14:09.433Z,9.40
2017-10-16T17:16:37.000Z,11.80
2017-10-16T17:19:04.557Z,14.50
2017-10-16T17:21:32.114Z,15.17
2017-10-16T17:23:59.677Z,12.07
2017-10-16T17:26:27.192Z,11.00
2017-10-16T17:28:54.766Z,15.47
2017-10-16T17:31:22.269Z,12.43
2017-10-16T17:33:49.779Z,11.73
2017-10-16T17:36:17.359Z,12.03
2017-10-16T17:38:44.980Z,17.73
2017-10-16T17:41:12.535Z,13.73
2017-10-16T17:43:40.059Z,18.20
2017-10-16T17:46:07.645Z,16.93
2017-10-16T17:48:35.379Z,20.50
2017-10-16T17:51:03.007Z,48.33
2017-10-16T17:53:30.580Z,72.13
2017-10-16T17:55:58.089Z,32.33
2017-10-16T17:58:25.642Z,19.17
2017-10-16T18:00:53.159Z,19.13
2017-10-16T18:03:20.715Z,20.77
2017-10-16T18:05:48.239Z,14.13
2017-10-16T18:08:15.749Z,12.67
2017-10-16T18:10:43.297Z,13.17
2017-10-16T18:13:10.805Z,13.07
2017-10-16T18:15:38.361Z,12.63
2017-10-16T18:18:05.870Z,13.47
2017-10-16T18:20:33.403Z,17.80
2017-10-16T18:23:00.982Z,24.30
2017-10-16T18:25:28.483Z,13.97
2017-10-16T18:27:56.031Z,11.77
2017-10-16T18:30:23.586Z,16.93
2017-10-16T18:32:51.092Z,10.23
2017-10-16T18:35:18.739Z,13.70
2017-10-16T18:37:46.261Z,13.80
2017-10-16T18:40:13.829Z,11.80
2017-10-16T18:42:41.510Z,14.03
2017-10-16T18:45:09.019Z,13.73
2017-10-16T18:47:36.568Z,9.67
2017-10-16T18:50:04.102Z,13.23
2017-10-16T18:52:31.609Z,10.90
2017-10-16T18:54:59.153Z,9.90
2017-10-16T18:57:26.663Z,12.40
2017-10-16T18:59:54.221Z,13.40
2017-10-16T19:02:21.732Z,9.37
2017-10-16T19:04:49.270Z,11.27
2017-10-16T19:07:16.829Z,15.17
2017-10-16T19:09:44.399Z,12.07
2017-10-16T19:12:11.910Z,10.13
2017-10-16T19:14:39.421Z,10.20
2017-10-16T19:17:06.984Z,9.13
2017-10-16T19:19:34.498Z,10.20
2017-10-16T19:22:02.057Z,16.00
2017-10-16T19:24:29.566Z,10.07
2017-10-16T19:26:57.905Z,10.60
2017-10-16T19:29:25.437Z,9.53
2017-10-16T19:31:52.973Z,9.43
2017-10-16T19:34:20.491Z,10.70
2017-10-16T19:36:48.038Z,11.87
2017-10-16T19:39:15.559Z,10.10
2017-10-16T19:41:43.877Z,11.63
2017-10-16T19:44:11.395Z,11.17
2017-10-16T19:46:39.748Z,10.90
2017-10-16T19:49:07.260Z,15.07
2017-10-16T19:51:34.829Z,14.93
2017-10-16T19:54:02.328Z,12.83
2017-10-16T19:56:29.845Z,10.47
2017-10-16T19:58:57.385Z,12.83
2017-10-16T20:01:24.896Z,14.20
2017-10-16T20:03:52.453Z,13.90
2017-10-16T20:06:20.076Z,10.47
2017-10-16T20:08:47.612Z,11.47
2017-10-16T20:11:15.214Z,11.30
2017-10-16T20:13:42.799Z,16.93
2017-10-16T20:16:10.304Z,11.80
2017-10-16T20:18:37.879Z,13.07
2017-10-16T20:21:05.396Z,11.07
2017-10-16T20:23:33.672Z,15.50
2017-10-16T20:26:01.233Z,12.97
2017-10-16T20:28:30.440Z,11.60
2017-10-16T20:30:58.080Z,13.83
2017-10-16T20:33:25.604Z,13.10
2017-10-16T20:35:53.155Z,13.70
2017-10-16T20:38:20.724Z,10.30
2017-10-16T20:40:48.252Z,25.53
2017-10-16T20:43:15.810Z,14.77
2017-10-16T20:45:43.396Z,11.37
2017-10-16T20:48:11.012Z,13.30
2017-10-16T20:50:39.308Z,12.47
2017-10-16T20:53:06.859Z,11.13
2017-10-16T20:55:34.369Z,11.17
2017-10-16T20:58:02.007Z,12.90
2017-10-16T21:00:29.544Z,13.00
2017-10-16T21:02:57.107Z,29.33
2017-10-16T21:05:24.624Z,14.47
2017-10-16T21:07:52.186Z,12.23
2017-10-16T21:10:19.736Z,12.27
2017-10-16T21:12:47.276Z,17.23
2017-10-16T21:15:14.844Z,15.90
2017-10-16T21:17:42.351Z,10.57
2017-10-16T21:20:09.880Z,16.53
2017-10-16T21:22:37.447Z,12.67
2017-10-16T21:25:05.785Z,13.07
2017-10-16T21:27:33.287Z,9.90
2017-10-16T21:30:01.624Z,9.77
2017-10-16T21:32:29.137Z,12.83
2017-10-16T21:34:57.440Z,20.23
2017-10-16T21:37:24.981Z,12.17
2017-10-16T21:39:52.487Z,12.30
2017-10-16T21:42:20.057Z,12.27
2017-10-16T21:44:47.578Z,11.20
2017-10-16T21:47:15.108Z,17.63
2017-10-16T21:49:43.416Z,24.93
2017-10-16T21:52:10.957Z,56.90
2017-10-16T21:54:38.529Z,30.27
2017-10-16T21:57:06.032Z,29.73
2017-10-16T21:59:33.598Z,33.57
2017-10-16T22:02:01.177Z,24.90
2017-10-16T22:04:28.719Z,23.33
2017-10-16T22:06:56.256Z,20.77
2017-10-16T22:09:23.803Z,18.43
2017-10-16T22:11:51.358Z,19.37
2017-10-16T22:14:18.892Z,17.27
2017-10-16T22:16:46.435Z,12.97
2017-10-16T22:19:14.328Z,15.63
2017-10-16T22:21:41.904Z,15.30
2017-10-16T22:24:09.486Z,13.17
2017-10-16T22:26:36.999Z,13.23
2017-10-16T22:29:04.673Z,23.73
2017-10-16T22:31:32.221Z,13.30
2017-10-16T22:33:59.770Z,14.40
2017-10-16T22:36:27.292Z,20.30
2017-10-16T22:38:54.858Z,12.53
2017-10-16T22:41:22.372Z,17.67
2017-10-16T22:43:50.788Z,17.63
2017-10-16T22:46:18.284Z,14.60
2017-10-16T22:48:58.704Z,12.83
2017-10-16T22:51:26.213Z,18.17
2017-10-16T22:54:05.617Z,13.73
2017-10-16T22:56:33.968Z,10.50
2017-10-16T22:59:01.461Z,11.63
2017-10-16T23:01:29.805Z,14.87
2017-10-16T23:03:57.370Z,13.27
2017-10-16T23:06:24.903Z,15.50
2017-10-16T23:08:52.484Z,12.03
2017-10-16T23:11:20.037Z,10.10
2017-10-16T23:13:47.544Z,9.73
2017-10-16T23:16:15.861Z,16.93
2017-10-16T23:18:43.388Z,11.00
2017-10-16T23:21:11.673Z,10.67
2017-10-16T23:23:39.234Z,10.43
2017-10-16T23:26:06.745Z,18.73
2017-10-16T23:28:34.325Z,12.60
2017-10-16T23:31:01.904Z,15.87
2017-10-16T23:33:30.230Z,17.03
2017-10-16T23:35:57.748Z,14.53
2017-10-16T23:38:26.088Z,15.37
2017-10-16T23:40:53.619Z,13.77
2017-10-16T23:43:21.154Z,12.90
2017-10-16T23:45:48.662Z,16.27
2017-10-16T23:48:16.219Z,12.83
2017-10-16T23:50:43.732Z,11.53
2017-10-16T23:53:11.264Z,15.03
2017-10-16T23:55:39.555Z,12.90
2017-10-16T23:58:07.872Z,11.97
